sensor_id;sensor_type;location;lat;lon;timestamp;temperature;humidity
2571;DHT22;1295;51.130;6.732;2023-06-14T00:01:38;25.30;93.60
2571;DHT22;1295;51.130;6.732;2023-06-14T00:04:04;25.30;93.60
2571;DHT22;1295;51.130;6.732;2023-06-14T00:06:30;25.20;93.60
2571;DHT22;1295;51.130;6.732;2023-06-14T00:08:56;25.20;93.70
2571;DHT22;1295;51.130;6.732;2023-06-14T00:11:22;25.20;93.70
2571;DHT22;1295;51.130;6.732;2023-06-14T00:13:47;25.20;93.80
2571;DHT22;1295;51.130;6.732;2023-06-14T00:16:13;25.20;93.80
2571;DHT22;1295;51.130;6.732;2023-06-14T00:18:39;25.10;93.80
2571;DHT22;1295;51.130;6.732;2023-06-14T00:21:05;25.10;93.90
2571;DHT22;1295;51.130;6.732;2023-06-14T00:23:30;25.10;94.00
2571;DHT22;1295;51.130;6.732;2023-06-14T00:25:56;25.10;94.10
2571;DHT22;1295;51.130;6.732;2023-06-14T00:28:21;25.10;94.10
2571;DHT22;1295;51.130;6.732;2023-06-14T00:30:47;25.10;94.10
2571;DHT22;1295;51.130;6.732;2023-06-14T00:33:13;25.10;94.20
2571;DHT22;1295;51.130;6.732;2023-06-14T00:35:38;25.00;94.20
2571;DHT22;1295;51.130;6.732;2023-06-14T00:38:05;25.00;94.30
2571;DHT22;1295;51.130;6.732;2023-06-14T00:40:30;25.00;94.30
2571;DHT22;1295;51.130;6.732;2023-06-14T00:42:57;24.90;94.30
2571;DHT22;1295;51.130;6.732;2023-06-14T00:45:22;24.90;94.30
2571;DHT22;1295;51.130;6.732;2023-06-14T00:47:48;24.90;94.30
2571;DHT22;1295;51.130;6.732;2023-06-14T00:50:13;24.90;94.30
2571;DHT22;1295;51.130;6.732;2023-06-14T00:52:39;24.90;94.30
2571;DHT22;1295;51.130;6.732;2023-06-14T00:55:06;24.90;94.30
2571;DHT22;1295;51.130;6.732;2023-06-14T00:57:31;24.90;94.40
2571;DHT22;1295;51.130;6.732;2023-06-14T00:59:57;24.90;94.40
2571;DHT22;1295;51.130;6.732;2023-06-14T01:02:23;24.80;94.40
2571;DHT22;1295;51.130;6.732;2023-06-14T01:04:48;24.80;94.40
2571;DHT22;1295;51.130;6.732;2023-06-14T01:10:23;24.70;94.40
2571;DHT22;1295;51.130;6.732;2023-06-14T01:15:27;24.70;94.50
2571;DHT22;1295;51.130;6.732;2023-06-14T01:17:53;24.70;94.50
2571;DHT22;1295;51.130;6.732;2023-06-14T01:20:27;24.70;94.50
2571;DHT22;1295;51.130;6.732;2023-06-14T01:22:51;24.70;94.60
2571;DHT22;1295;51.130;6.732;2023-06-14T01:25:17;24.60;94.60
2571;DHT22;1295;51.130;6.732;2023-06-14T01:27:43;24.60;94.60
2571;DHT22;1295;51.130;6.732;2023-06-14T01:30:09;24.60;94.60
2571;DHT22;1295;51.130;6.732;2023-06-14T01:32:36;24.60;94.70
2571;DHT22;1295;51.130;6.732;2023-06-14T01:35:02;24.50;94.60
2571;DHT22;1295;51.130;6.732;2023-06-14T01:37:28;24.50;94.70
2571;DHT22;1295;51.130;6.732;2023-06-14T01:39:53;24.50;94.70
2571;DHT22;1295;51.130;6.732;2023-06-14T01:42:19;24.40;94.70
2571;DHT22;1295;51.130;6.732;2023-06-14T01:44:44;24.50;94.80
2571;DHT22;1295;51.130;6.732;2023-06-14T01:47:10;24.50;94.80
2571;DHT22;1295;51.130;6.732;2023-06-14T01:49:36;24.40;94.70
2571;DHT22;1295;51.130;6.732;2023-06-14T01:52:01;24.40;94.80
2571;DHT22;1295;51.130;6.732;2023-06-14T01:54:28;24.40;94.90
2571;DHT22;1295;51.130;6.732;2023-06-14T01:56:53;24.30;94.80
2571;DHT22;1295;51.130;6.732;2023-06-14T01:59:19;24.40;95.20
2571;DHT22;1295;51.130;6.732;2023-06-14T02:01:45;24.30;94.90
2571;DHT22;1295;51.130;6.732;2023-06-14T02:04:11;24.30;94.90
2571;DHT22;1295;51.130;6.732;2023-06-14T02:06:37;24.30;94.90
2571;DHT22;1295;51.130;6.732;2023-06-14T02:09:02;24.30;94.90
2571;DHT22;1295;51.130;6.732;2023-06-14T02:11:28;24.30;95.00
2571;DHT22;1295;51.130;6.732;2023-06-14T02:13:54;24.20;95.00
2571;DHT22;1295;51.130;6.732;2023-06-14T02:16:19;24.20;95.00
2571;DHT22;1295;51.130;6.732;2023-06-14T02:18:45;24.20;95.00
2571;DHT22;1295;51.130;6.732;2023-06-14T02:21:11;24.20;95.00
2571;DHT22;1295;51.130;6.732;2023-06-14T02:23:36;24.20;95.10
2571;DHT22;1295;51.130;6.732;2023-06-14T02:26:02;24.20;95.10
2571;DHT22;1295;51.130;6.732;2023-06-14T02:28:27;24.10;95.10
2571;DHT22;1295;51.130;6.732;2023-06-14T02:30:53;24.10;95.10
2571;DHT22;1295;51.130;6.732;2023-06-14T02:33:19;24.10;95.10
2571;DHT22;1295;51.130;6.732;2023-06-14T02:35:44;24.10;95.10
2571;DHT22;1295;51.130;6.732;2023-06-14T02:38:10;24.00;95.30
2571;DHT22;1295;51.130;6.732;2023-06-14T02:40:36;24.00;95.10
2571;DHT22;1295;51.130;6.732;2023-06-14T02:43:02;24.00;95.10
2571;DHT22;1295;51.130;6.732;2023-06-14T02:45:28;24.00;95.10
2571;DHT22;1295;51.130;6.732;2023-06-14T02:47:53;24.00;95.10
2571;DHT22;1295;51.130;6.732;2023-06-14T02:50:19;24.00;95.10
2571;DHT22;1295;51.130;6.732;2023-06-14T02:52:44;23.90;95.10
2571;DHT22;1295;51.130;6.732;2023-06-14T02:55:10;23.90;95.10
2571;DHT22;1295;51.130;6.732;2023-06-14T02:57:36;23.90;95.10
2571;DHT22;1295;51.130;6.732;2023-06-14T03:00:03;23.90;95.30
2571;DHT22;1295;51.130;6.732;2023-06-14T03:02:28;23.80;95.20
2571;DHT22;1295;51.130;6.732;2023-06-14T03:04:54;23.80;95.20
2571;DHT22;1295;51.130;6.732;2023-06-14T03:07:20;23.80;95.30
2571;DHT22;1295;51.130;6.732;2023-06-14T03:09:45;23.80;95.30
2571;DHT22;1295;51.130;6.732;2023-06-14T03:12:12;23.80;95.30
2571;DHT22;1295;51.130;6.732;2023-06-14T03:14:37;23.70;95.30
2571;DHT22;1295;51.130;6.732;2023-06-14T03:17:03;23.70;95.30
2571;DHT22;1295;51.130;6.732;2023-06-14T03:19:29;23.70;95.30
2571;DHT22;1295;51.130;6.732;2023-06-14T03:21:55;23.70;95.40
2571;DHT22;1295;51.130;6.732;2023-06-14T03:24:24;23.70;95.40
2571;DHT22;1295;51.130;6.732;2023-06-14T03:26:49;23.60;95.40
2571;DHT22;1295;51.130;6.732;2023-06-14T03:29:15;23.60;95.40
2571;DHT22;1295;51.130;6.732;2023-06-14T03:31:55;23.60;95.40
2571;DHT22;1295;51.130;6.732;2023-06-14T03:34:06;23.60;95.40
2571;DHT22;1295;51.130;6.732;2023-06-14T03:36:32;23.60;95.40
2571;DHT22;1295;51.130;6.732;2023-06-14T03:38:59;23.50;95.40
2571;DHT22;1295;51.130;6.732;2023-06-14T03:41:24;23.50;95.40
2571;DHT22;1295;51.130;6.732;2023-06-14T03:43:50;23.50;95.40
2571;DHT22;1295;51.130;6.732;2023-06-14T03:46:16;23.50;95.40
2571;DHT22;1295;51.130;6.732;2023-06-14T03:48:41;23.50;95.50
2571;DHT22;1295;51.130;6.732;2023-06-14T03:51:07;23.50;95.50
2571;DHT22;1295;51.130;6.732;2023-06-14T03:53:32;23.50;95.90
2571;DHT22;1295;51.130;6.732;2023-06-14T03:55:58;23.40;95.50
2571;DHT22;1295;51.130;6.732;2023-06-14T03:58:24;23.40;95.50
2571;DHT22;1295;51.130;6.732;2023-06-14T04:00:49;23.40;95.50
2571;DHT22;1295;51.130;6.732;2023-06-14T04:03:15;23.40;95.60
2571;DHT22;1295;51.130;6.732;2023-06-14T04:05:42;23.30;95.80
2571;DHT22;1295;51.130;6.732;2023-06-14T04:08:08;23.30;95.60
2571;DHT22;1295;51.130;6.732;2023-06-14T04:10:33;23.30;95.60
2571;DHT22;1295;51.130;6.732;2023-06-14T04:12:58;23.30;95.60
2571;DHT22;1295;51.130;6.732;2023-06-14T04:15:24;23.30;95.70
2571;DHT22;1295;51.130;6.732;2023-06-14T04:17:50;23.30;95.70
2571;DHT22;1295;51.130;6.732;2023-06-14T04:20:15;23.30;95.70
2571;DHT22;1295;51.130;6.732;2023-06-14T04:22:42;23.30;95.70
2571;DHT22;1295;51.130;6.732;2023-06-14T04:25:07;23.20;95.80
2571;DHT22;1295;51.130;6.732;2023-06-14T04:27:33;23.20;95.80
2571;DHT22;1295;51.130;6.732;2023-06-14T04:29:58;23.20;95.90
2571;DHT22;1295;51.130;6.732;2023-06-14T04:32:24;23.20;95.90
2571;DHT22;1295;51.130;6.732;2023-06-14T04:34:50;23.20;95.90
2571;DHT22;1295;51.130;6.732;2023-06-14T04:37:15;23.20;96.00
2571;DHT22;1295;51.130;6.732;2023-06-14T04:39:41;23.10;96.00
2571;DHT22;1295;51.130;6.732;2023-06-14T04:42:07;23.10;96.00
2571;DHT22;1295;51.130;6.732;2023-06-14T04:44:32;23.10;96.00
2571;DHT22;1295;51.130;6.732;2023-06-14T04:46:58;23.10;96.10
2571;DHT22;1295;51.130;6.732;2023-06-14T04:49:24;23.10;96.10
2571;DHT22;1295;51.130;6.732;2023-06-14T04:51:50;23.10;96.20
2571;DHT22;1295;51.130;6.732;2023-06-14T04:54:17;23.10;96.20
2571;DHT22;1295;51.130;6.732;2023-06-14T04:56:43;23.10;96.40
2571;DHT22;1295;51.130;6.732;2023-06-14T04:59:09;23.10;96.30
2571;DHT22;1295;51.130;6.732;2023-06-14T05:01:34;23.10;96.40
2571;DHT22;1295;51.130;6.732;2023-06-14T05:04:00;23.10;96.40
2571;DHT22;1295;51.130;6.732;2023-06-14T05:06:25;23.10;96.40
2571;DHT22;1295;51.130;6.732;2023-06-14T05:08:52;23.10;96.30
2571;DHT22;1295;51.130;6.732;2023-06-14T05:11:18;23.10;96.40
2571;DHT22;1295;51.130;6.732;2023-06-14T05:13:43;23.10;96.30
2571;DHT22;1295;51.130;6.732;2023-06-14T05:16:09;23.00;96.20
2571;DHT22;1295;51.130;6.732;2023-06-14T05:18:34;23.00;96.20
2571;DHT22;1295;51.130;6.732;2023-06-14T05:21:00;23.00;96.10
2571;DHT22;1295;51.130;6.732;2023-06-14T05:23:27;23.00;96.20
2571;DHT22;1295;51.130;6.732;2023-06-14T05:25:52;23.00;96.10
2571;DHT22;1295;51.130;6.732;2023-06-14T05:28:18;23.00;96.10
2571;DHT22;1295;51.130;6.732;2023-06-14T05:30:44;23.00;96.10
2571;DHT22;1295;51.130;6.732;2023-06-14T05:33:10;23.00;96.30
2571;DHT22;1295;51.130;6.732;2023-06-14T05:35:36;23.00;96.00
2571;DHT22;1295;51.130;6.732;2023-06-14T05:38:02;23.00;96.00
2571;DHT22;1295;51.130;6.732;2023-06-14T05:40:28;23.00;96.00
2571;DHT22;1295;51.130;6.732;2023-06-14T05:42:53;22.90;96.00
2571;DHT22;1295;51.130;6.732;2023-06-14T05:45:20;22.80;96.10
2571;DHT22;1295;51.130;6.732;2023-06-14T05:47:45;22.80;96.00
2571;DHT22;1295;51.130;6.732;2023-06-14T05:50:11;22.80;96.00
2571;DHT22;1295;51.130;6.732;2023-06-14T05:52:36;22.90;96.00
2571;DHT22;1295;51.130;6.732;2023-06-14T05:55:03;23.00;95.90
2571;DHT22;1295;51.130;6.732;2023-06-14T05:57:29;22.90;95.90
2571;DHT22;1295;51.130;6.732;2023-06-14T05:59:55;22.90;95.90
2571;DHT22;1295;51.130;6.732;2023-06-14T06:02:20;22.90;95.80
2571;DHT22;1295;51.130;6.732;2023-06-14T06:04:46;22.90;95.70
2571;DHT22;1295;51.130;6.732;2023-06-14T06:07:12;22.70;95.80
2571;DHT22;1295;51.130;6.732;2023-06-14T06:09:37;22.80;95.70
2571;DHT22;1295;51.130;6.732;2023-06-14T06:12:05;22.80;95.70
2571;DHT22;1295;51.130;6.732;2023-06-14T06:14:30;22.70;95.70
2571;DHT22;1295;51.130;6.732;2023-06-14T06:16:57;22.70;95.10
2571;DHT22;1295;51.130;6.732;2023-06-14T06:19:22;22.70;94.90
2571;DHT22;1295;51.130;6.732;2023-06-14T06:21:49;22.70;95.50
2571;DHT22;1295;51.130;6.732;2023-06-14T06:24:14;22.70;95.50
2571;DHT22;1295;51.130;6.732;2023-06-14T06:26:40;22.80;95.30
2571;DHT22;1295;51.130;6.732;2023-06-14T06:29:06;22.30;95.40
2571;DHT22;1295;51.130;6.732;2023-06-14T06:31:32;22.30;95.40
2571;DHT22;1295;51.130;6.732;2023-06-14T06:33:58;22.60;95.30
2571;DHT22;1295;51.130;6.732;2023-06-14T06:39:09;22.10;95.20
2571;DHT22;1295;51.130;6.732;2023-06-14T06:41:34;22.40;95.40
2571;DHT22;1295;51.130;6.732;2023-06-14T06:44:00;22.60;95.00
2571;DHT22;1295;51.130;6.732;2023-06-14T06:46:26;21.90;95.10
2571;DHT22;1295;51.130;6.732;2023-06-14T06:48:51;21.80;95.50
2571;DHT22;1295;51.130;6.732;2023-06-14T06:51:17;21.50;94.80
2571;DHT22;1295;51.130;6.732;2023-06-14T06:53:42;21.50;94.70
2571;DHT22;1295;51.130;6.732;2023-06-14T06:56:08;22.00;95.30
2571;DHT22;1295;51.130;6.732;2023-06-14T06:58:34;22.40;94.90
2571;DHT22;1295;51.130;6.732;2023-06-14T07:01:00;22.30;95.10
2571;DHT22;1295;51.130;6.732;2023-06-14T07:03:26;22.30;95.10
2571;DHT22;1295;51.130;6.732;2023-06-14T07:05:51;21.90;95.10
2571;DHT22;1295;51.130;6.732;2023-06-14T07:08:17;22.10;95.10
2571;DHT22;1295;51.130;6.732;2023-06-14T07:10:43;22.50;95.10
2571;DHT22;1295;51.130;6.732;2023-06-14T07:13:08;22.60;94.70
2571;DHT22;1295;51.130;6.732;2023-06-14T07:15:34;22.60;94.40
2571;DHT22;1295;51.130;6.732;2023-06-14T07:17:59;22.60;94.60
2571;DHT22;1295;51.130;6.732;2023-06-14T07:20:25;22.70;94.60
2571;DHT22;1295;51.130;6.732;2023-06-14T07:22:51;22.40;94.30
2571;DHT22;1295;51.130;6.732;2023-06-14T07:25:17;21.90;93.70
2571;DHT22;1295;51.130;6.732;2023-06-14T07:27:42;22.40;94.50
2571;DHT22;1295;51.130;6.732;2023-06-14T07:30:09;22.60;94.00
2571;DHT22;1295;51.130;6.732;2023-06-14T07:32:36;22.60;93.30
2571;DHT22;1295;51.130;6.732;2023-06-14T07:35:02;22.60;93.30
2571;DHT22;1295;51.130;6.732;2023-06-14T07:37:27;22.60;94.20
2571;DHT22;1295;51.130;6.732;2023-06-14T07:39:53;22.70;94.10
2571;DHT22;1295;51.130;6.732;2023-06-14T07:42:19;22.80;93.70
2571;DHT22;1295;51.130;6.732;2023-06-14T07:44:45;22.80;93.70
2571;DHT22;1295;51.130;6.732;2023-06-14T07:47:11;22.80;93.70
2571;DHT22;1295;51.130;6.732;2023-06-14T07:49:36;22.70;93.40
2571;DHT22;1295;51.130;6.732;2023-06-14T07:52:02;22.80;93.30
2571;DHT22;1295;51.130;6.732;2023-06-14T07:54:29;23.00;92.80
2571;DHT22;1295;51.130;6.732;2023-06-14T07:56:54;22.90;92.70
2571;DHT22;1295;51.130;6.732;2023-06-14T07:59:20;22.90;92.70
2571;DHT22;1295;51.130;6.732;2023-06-14T08:01:45;22.90;92.70
2571;DHT22;1295;51.130;6.732;2023-06-14T08:04:11;23.00;92.50
2571;DHT22;1295;51.130;6.732;2023-06-14T08:06:37;22.90;91.80
2571;DHT22;1295;51.130;6.732;2023-06-14T08:09:03;23.00;92.00
2571;DHT22;1295;51.130;6.732;2023-06-14T08:11:28;23.10;91.60
2571;DHT22;1295;51.130;6.732;2023-06-14T08:13:59;23.10;90.90
2571;DHT22;1295;51.130;6.732;2023-06-14T08:16:36;23.20;90.10
2571;DHT22;1295;51.130;6.732;2023-06-14T08:19:02;23.10;91.30
2571;DHT22;1295;51.130;6.732;2023-06-14T08:21:28;23.20;91.20
2571;DHT22;1295;51.130;6.732;2023-06-14T08:23:53;23.20;91.10
2571;DHT22;1295;51.130;6.732;2023-06-14T08:26:19;23.20;90.40
2571;DHT22;1295;51.130;6.732;2023-06-14T08:28:44;23.10;90.60
2571;DHT22;1295;51.130;6.732;2023-06-14T08:31:11;23.20;90.70
2571;DHT22;1295;51.130;6.732;2023-06-14T08:33:37;23.40;90.30
2571;DHT22;1295;51.130;6.732;2023-06-14T08:36:03;23.30;90.20
2571;DHT22;1295;51.130;6.732;2023-06-14T08:38:29;23.30;90.50
2571;DHT22;1295;51.130;6.732;2023-06-14T08:40:57;23.70;90.30
2571;DHT22;1295;51.130;6.732;2023-06-14T08:43:20;23.60;88.50
2571;DHT22;1295;51.130;6.732;2023-06-14T08:45:46;23.70;90.10
2571;DHT22;1295;51.130;6.732;2023-06-14T08:48:11;23.60;90.10
2571;DHT22;1295;51.130;6.732;2023-06-14T08:50:37;23.50;90.10
2571;DHT22;1295;51.130;6.732;2023-06-14T08:53:04;23.40;90.30
2571;DHT22;1295;51.130;6.732;2023-06-14T08:55:29;23.40;90.30
2571;DHT22;1295;51.130;6.732;2023-06-14T08:57:55;23.40;90.20
2571;DHT22;1295;51.130;6.732;2023-06-14T09:00:21;23.30;90.30
2571;DHT22;1295;51.130;6.732;2023-06-14T09:02:47;23.60;89.30
2571;DHT22;1295;51.130;6.732;2023-06-14T09:05:13;23.60;89.30
2571;DHT22;1295;51.130;6.732;2023-06-14T09:07:40;23.50;89.20
2571;DHT22;1295;51.130;6.732;2023-06-14T09:10:08;23.60;88.20
2571;DHT22;1295;51.130;6.732;2023-06-14T09:12:33;23.60;89.00
2571;DHT22;1295;51.130;6.732;2023-06-14T09:14:59;23.60;89.00
2571;DHT22;1295;51.130;6.732;2023-06-14T09:17:24;23.50;89.20
2571;DHT22;1295;51.130;6.732;2023-06-14T09:19:51;23.80;89.50
2571;DHT22;1295;51.130;6.732;2023-06-14T09:22:16;23.70;89.30
2571;DHT22;1295;51.130;6.732;2023-06-14T09:24:42;23.90;89.80
2571;DHT22;1295;51.130;6.732;2023-06-14T09:27:08;23.60;89.80
2571;DHT22;1295;51.130;6.732;2023-06-14T09:29:34;24.10;90.30
2571;DHT22;1295;51.130;6.732;2023-06-14T09:31:59;24.00;90.20
2571;DHT22;1295;51.130;6.732;2023-06-14T09:34:26;24.20;90.00
2571;DHT22;1295;51.130;6.732;2023-06-14T09:36:51;24.10;90.00
2571;DHT22;1295;51.130;6.732;2023-06-14T09:39:17;24.00;90.20
2571;DHT22;1295;51.130;6.732;2023-06-14T09:41:43;23.70;90.20
2571;DHT22;1295;51.130;6.732;2023-06-14T09:44:09;24.10;92.20
2571;DHT22;1295;51.130;6.732;2023-06-14T09:46:34;24.20;90.40
2571;DHT22;1295;51.130;6.732;2023-06-14T09:49:00;24.10;90.40
2571;DHT22;1295;51.130;6.732;2023-06-14T09:51:25;24.00;90.60
2571;DHT22;1295;51.130;6.732;2023-06-14T09:53:51;24.10;90.60
2571;DHT22;1295;51.130;6.732;2023-06-14T09:56:21;24.00;90.70
2571;DHT22;1295;51.130;6.732;2023-06-14T09:58:43;23.90;91.10
2571;DHT22;1295;51.130;6.732;2023-06-14T10:01:08;24.10;91.10
2571;DHT22;1295;51.130;6.732;2023-06-14T10:03:35;24.00;91.00
2571;DHT22;1295;51.130;6.732;2023-06-14T10:06:02;23.90;91.00
2571;DHT22;1295;51.130;6.732;2023-06-14T10:08:27;24.00;90.90
2571;DHT22;1295;51.130;6.732;2023-06-14T10:10:53;24.00;91.10
2571;DHT22;1295;51.130;6.732;2023-06-14T10:13:18;23.90;91.00
2571;DHT22;1295;51.130;6.732;2023-06-14T10:18:41;24.20;90.70
2571;DHT22;1295;51.130;6.732;2023-06-14T10:21:05;24.20;90.90
2571;DHT22;1295;51.130;6.732;2023-06-14T10:23:29;23.90;91.00
2571;DHT22;1295;51.130;6.732;2023-06-14T10:25:56;23.90;91.00
2571;DHT22;1295;51.130;6.732;2023-06-14T10:28:21;23.90;91.00
2571;DHT22;1295;51.130;6.732;2023-06-14T10:33:25;24.10;91.00
2571;DHT22;1295;51.130;6.732;2023-06-14T10:36:01;24.20;90.80
2571;DHT22;1295;51.130;6.732;2023-06-14T10:38:17;24.10;90.90
2571;DHT22;1295;51.130;6.732;2023-06-14T10:40:43;24.10;90.90
2571;DHT22;1295;51.130;6.732;2023-06-14T10:43:27;24.20;91.00
2571;DHT22;1295;51.130;6.732;2023-06-14T10:48:31;24.40;91.10
2571;DHT22;1295;51.130;6.732;2023-06-14T10:51:00;24.60;90.90
2571;DHT22;1295;51.130;6.732;2023-06-14T10:53:26;24.30;91.00
2571;DHT22;1295;51.130;6.732;2023-06-14T10:55:51;24.30;91.00
2571;DHT22;1295;51.130;6.732;2023-06-14T10:58:17;24.10;91.10
2571;DHT22;1295;51.130;6.732;2023-06-14T11:00:43;24.30;91.20
2571;DHT22;1295;51.130;6.732;2023-06-14T11:03:20;24.30;91.20
2571;DHT22;1295;51.130;6.732;2023-06-14T11:05:56;24.30;91.20
2571;DHT22;1295;51.130;6.732;2023-06-14T11:08:46;24.20;91.30
2571;DHT22;1295;51.130;6.732;2023-06-14T11:11:06;24.30;91.20
2571;DHT22;1295;51.130;6.732;2023-06-14T11:13:31;24.30;91.30
2571;DHT22;1295;51.130;6.732;2023-06-14T11:15:57;24.20;91.40
2571;DHT22;1295;51.130;6.732;2023-06-14T11:18:23;24.60;91.30
2571;DHT22;1295;51.130;6.732;2023-06-14T11:20:48;24.60;91.70
2571;DHT22;1295;51.130;6.732;2023-06-14T11:23:14;24.40;91.30
2571;DHT22;1295;51.130;6.732;2023-06-14T11:25:39;24.60;91.40
2571;DHT22;1295;51.130;6.732;2023-06-14T11:28:05;24.40;91.40
2571;DHT22;1295;51.130;6.732;2023-06-14T11:30:31;24.50;91.40
2571;DHT22;1295;51.130;6.732;2023-06-14T11:32:56;24.30;91.90
2571;DHT22;1295;51.130;6.732;2023-06-14T11:35:22;24.50;91.30
2571;DHT22;1295;51.130;6.732;2023-06-14T11:37:49;24.70;91.80
2571;DHT22;1295;51.130;6.732;2023-06-14T11:40:14;24.60;91.70
2571;DHT22;1295;51.130;6.732;2023-06-14T11:42:40;24.50;91.70
2571;DHT22;1295;51.130;6.732;2023-06-14T11:45:08;24.80;91.80
2571;DHT22;1295;51.130;6.732;2023-06-14T11:47:34;24.70;91.80
2571;DHT22;1295;51.130;6.732;2023-06-14T11:50:00;24.60;91.60
2571;DHT22;1295;51.130;6.732;2023-06-14T11:52:25;25.10;92.40
2571;DHT22;1295;51.130;6.732;2023-06-14T11:54:50;24.80;92.70
2571;DHT22;1295;51.130;6.732;2023-06-14T11:57:17;24.90;91.80
2571;DHT22;1295;51.130;6.732;2023-06-14T11:59:42;24.80;91.60
2571;DHT22;1295;51.130;6.732;2023-06-14T12:02:07;24.90;91.80
2571;DHT22;1295;51.130;6.732;2023-06-14T12:04:33;24.80;91.80
2571;DHT22;1295;51.130;6.732;2023-06-14T12:07:08;24.70;91.90
2571;DHT22;1295;51.130;6.732;2023-06-14T12:09:33;24.90;91.80
2571;DHT22;1295;51.130;6.732;2023-06-14T12:12:00;24.90;91.80
2571;DHT22;1295;51.130;6.732;2023-06-14T12:14:30;24.90;91.80
2571;DHT22;1295;51.130;6.732;2023-06-14T12:17:03;24.70;91.90
2571;DHT22;1295;51.130;6.732;2023-06-14T12:19:19;24.70;92.00
2571;DHT22;1295;51.130;6.732;2023-06-14T12:21:46;24.80;92.00
2571;DHT22;1295;51.130;6.732;2023-06-14T12:24:12;24.70;92.50
2571;DHT22;1295;51.130;6.732;2023-06-14T12:26:38;25.10;91.80
2571;DHT22;1295;51.130;6.732;2023-06-14T12:29:04;25.00;91.80
2571;DHT22;1295;51.130;6.732;2023-06-14T12:31:29;24.90;91.90
2571;DHT22;1295;51.130;6.732;2023-06-14T12:33:55;24.80;92.00
2571;DHT22;1295;51.130;6.732;2023-06-14T12:36:20;24.70;92.00
2571;DHT22;1295;51.130;6.732;2023-06-14T12:38:46;24.80;92.20
2571;DHT22;1295;51.130;6.732;2023-06-14T12:41:12;24.70;92.00
2571;DHT22;1295;51.130;6.732;2023-06-14T12:43:37;25.00;91.90
2571;DHT22;1295;51.130;6.732;2023-06-14T12:46:03;24.70;91.90
2571;DHT22;1295;51.130;6.732;2023-06-14T12:48:28;24.90;92.00
2571;DHT22;1295;51.130;6.732;2023-06-14T12:50:54;24.70;92.00
2571;DHT22;1295;51.130;6.732;2023-06-14T12:53:20;24.80;92.00
2571;DHT22;1295;51.130;6.732;2023-06-14T12:55:46;25.20;92.60
2571;DHT22;1295;51.130;6.732;2023-06-14T12:58:12;25.20;92.20
2571;DHT22;1295;51.130;6.732;2023-06-14T13:00:38;24.90;91.90
2571;DHT22;1295;51.130;6.732;2023-06-14T13:03:04;24.90;91.90
2571;DHT22;1295;51.130;6.732;2023-06-14T13:05:29;25.40;92.10
2571;DHT22;1295;51.130;6.732;2023-06-14T13:07:55;25.20;91.90
2571;DHT22;1295;51.130;6.732;2023-06-14T13:10:21;25.40;92.20
2571;DHT22;1295;51.130;6.732;2023-06-14T13:12:47;25.40;92.20
2571;DHT22;1295;51.130;6.732;2023-06-14T13:15:13;25.10;91.90
2571;DHT22;1295;51.130;6.732;2023-06-14T13:17:38;25.60;92.20
2571;DHT22;1295;51.130;6.732;2023-06-14T13:20:05;25.20;91.70
2571;DHT22;1295;51.130;6.732;2023-06-14T13:22:30;25.40;91.80
2571;DHT22;1295;51.130;6.732;2023-06-14T13:24:56;25.20;92.00
2571;DHT22;1295;51.130;6.732;2023-06-14T13:27:22;25.10;91.90
2571;DHT22;1295;51.130;6.732;2023-06-14T13:29:48;25.20;91.90
2571;DHT22;1295;51.130;6.732;2023-06-14T13:32:14;25.20;91.90
2571;DHT22;1295;51.130;6.732;2023-06-14T13:34:40;25.10;92.10
2571;DHT22;1295;51.130;6.732;2023-06-14T13:37:06;25.10;92.10
2571;DHT22;1295;51.130;6.732;2023-06-14T13:39:31;25.10;92.10
2571;DHT22;1295;51.130;6.732;2023-06-14T13:41:57;25.30;92.10
2571;DHT22;1295;51.130;6.732;2023-06-14T13:44:23;25.60;91.90
2571;DHT22;1295;51.130;6.732;2023-06-14T13:46:48;25.50;92.40
2571;DHT22;1295;51.130;6.732;2023-06-14T13:49:14;25.30;92.20
2571;DHT22;1295;51.130;6.732;2023-06-14T13:51:39;25.20;92.10
2571;DHT22;1295;51.130;6.732;2023-06-14T13:54:05;25.40;92.20
2571;DHT22;1295;51.130;6.732;2023-06-14T13:56:31;25.20;92.30
2571;DHT22;1295;51.130;6.732;2023-06-14T13:58:56;25.10;92.20
2571;DHT22;1295;51.130;6.732;2023-06-14T14:01:22;25.20;92.70
2571;DHT22;1295;51.130;6.732;2023-06-14T14:03:48;25.30;92.10
2571;DHT22;1295;51.130;6.732;2023-06-14T14:06:13;25.40;92.10
2571;DHT22;1295;51.130;6.732;2023-06-14T14:08:40;25.50;91.80
2571;DHT22;1295;51.130;6.732;2023-06-14T14:11:05;25.50;92.10
2571;DHT22;1295;51.130;6.732;2023-06-14T14:13:31;25.30;92.20
2571;DHT22;1295;51.130;6.732;2023-06-14T14:15:57;25.50;91.60
2571;DHT22;1295;51.130;6.732;2023-06-14T14:18:23;25.50;91.90
2571;DHT22;1295;51.130;6.732;2023-06-14T14:20:49;25.50;92.00
2571;DHT22;1295;51.130;6.732;2023-06-14T14:23:15;25.40;92.00
2571;DHT22;1295;51.130;6.732;2023-06-14T14:25:41;25.40;92.20
2571;DHT22;1295;51.130;6.732;2023-06-14T14:28:06;25.40;92.10
2571;DHT22;1295;51.130;6.732;2023-06-14T14:30:32;25.40;92.10
2571;DHT22;1295;51.130;6.732;2023-06-14T14:32:57;25.60;92.40
2571;DHT22;1295;51.130;6.732;2023-06-14T14:35:23;25.60;90.80
2571;DHT22;1295;51.130;6.732;2023-06-14T14:37:49;25.50;91.90
2571;DHT22;1295;51.130;6.732;2023-06-14T14:40:14;25.40;92.00
2571;DHT22;1295;51.130;6.732;2023-06-14T14:42:40;25.60;91.60
2571;DHT22;1295;51.130;6.732;2023-06-14T14:45:07;25.60;91.90
2571;DHT22;1295;51.130;6.732;2023-06-14T14:47:34;25.60;91.70
2571;DHT22;1295;51.130;6.732;2023-06-14T14:49:59;25.60;91.80
2571;DHT22;1295;51.130;6.732;2023-06-14T14:52:30;25.60;91.60
2571;DHT22;1295;51.130;6.732;2023-06-14T14:55:06;25.60;92.00
2571;DHT22;1295;51.130;6.732;2023-06-14T14:57:32;25.90;91.70
2571;DHT22;1295;51.130;6.732;2023-06-14T14:59:58;26.00;91.80
2571;DHT22;1295;51.130;6.732;2023-06-14T15:02:24;26.10;91.70
2571;DHT22;1295;51.130;6.732;2023-06-14T15:04:49;25.90;91.80
2571;DHT22;1295;51.130;6.732;2023-06-14T15:07:15;25.80;91.80
2571;DHT22;1295;51.130;6.732;2023-06-14T15:09:41;25.70;91.70
2571;DHT22;1295;51.130;6.732;2023-06-14T15:12:08;25.70;91.70
2571;DHT22;1295;51.130;6.732;2023-06-14T15:14:34;25.70;91.80
2571;DHT22;1295;51.130;6.732;2023-06-14T15:17:00;25.70;91.60
2571;DHT22;1295;51.130;6.732;2023-06-14T15:19:26;25.70;91.50
2571;DHT22;1295;51.130;6.732;2023-06-14T15:21:52;25.80;91.30
2571;DHT22;1295;51.130;6.732;2023-06-14T15:24:17;26.00;88.60
2571;DHT22;1295;51.130;6.732;2023-06-14T15:26:43;25.80;90.90
2571;DHT22;1295;51.130;6.732;2023-06-14T15:29:08;25.80;90.80
2571;DHT22;1295;51.130;6.732;2023-06-14T15:31:34;25.80;91.10
2571;DHT22;1295;51.130;6.732;2023-06-14T15:34:00;25.80;90.30
2571;DHT22;1295;51.130;6.732;2023-06-14T15:36:25;25.60;88.90
2571;DHT22;1295;51.130;6.732;2023-06-14T15:38:51;25.70;91.00
2571;DHT22;1295;51.130;6.732;2023-06-14T15:41:16;25.90;90.70
2571;DHT22;1295;51.130;6.732;2023-06-14T15:43:42;26.00;90.80
2571;DHT22;1295;51.130;6.732;2023-06-14T15:46:08;25.90;91.00
2571;DHT22;1295;51.130;6.732;2023-06-14T15:48:33;25.80;90.90
2571;DHT22;1295;51.130;6.732;2023-06-14T15:50:59;25.90;90.80
2571;DHT22;1295;51.130;6.732;2023-06-14T15:53:30;25.80;90.70
2571;DHT22;1295;51.130;6.732;2023-06-14T15:56:06;25.80;90.60
2571;DHT22;1295;51.130;6.732;2023-06-14T15:58:32;25.60;89.10
2571;DHT22;1295;51.130;6.732;2023-06-14T16:00:57;25.60;90.50
2571;DHT22;1295;51.130;6.732;2023-06-14T16:03:23;25.70;90.50
2571;DHT22;1295;51.130;6.732;2023-06-14T16:05:49;25.90;90.50
2571;DHT22;1295;51.130;6.732;2023-06-14T16:08:15;25.90;90.50
2571;DHT22;1295;51.130;6.732;2023-06-14T16:10:41;25.90;89.40